Time;durP1;ratioP1;P1;durP2;ratioP2;P2;SDS_P1;SDS_P2;PMS_P1;PMS_P2;Temp;Humidity;BMP_temperature;BMP_pressure;BME280_temperature;BME280_humidity;BME280_pressure;Samples;Min_cycle;Max_cycle;Signal;HPM_P1;HPM_P2
2021/01/18 00:00:29;;;;;;;1.67;0.90;;;14.70;65.50;;;;;;4198106;28;20055;-41
2021/01/18 00:02:51;;;;;;;0.00;0.00;;;14.70;65.70;;;;;;4198125;28;20052;-42
2021/01/18 00:05:13;;;;;;;0.65;0.65;;;14.70;65.60;;;;;;4194491;28;20493;-42
2021/01/18 00:07:45;;;;;;;0.00;0.00;;;14.70;65.70;;;;;;4198007;28;20114;-42
2021/01/18 00:10:06;;;;;;;0.00;0.00;;;14.60;65.70;;;;;;4197849;28;20052;-42
2021/01/18 00:12:27;;;;;;;0.55;0.55;;;14.60;65.80;;;;;;4197793;28;20496;-42
2021/01/18 00:14:48;;;;;;;0.00;0.00;;;14.60;65.80;;;;;;4197909;28;20052;-42
2021/01/18 00:17:10;;;;;;;0.00;0.00;;;14.60;65.90;;;;;;4197353;28;20522;-42
2021/01/18 00:19:31;;;;;;;0.00;0.00;;;14.50;65.90;;;;;;4189166;28;20134;-42
2021/01/18 00:21:52;;;;;;;0.00;0.00;;;14.60;66.10;;;;;;4197703;28;20498;-42
2021/01/18 00:24:13;;;;;;;0.00;0.00;;;14.50;66.00;;;;;;4197717;28;20053;-42
2021/01/18 00:26:34;;;;;;;0.38;0.38;;;14.50;66.10;;;;;;4197739;28;20106;-42
2021/01/18 00:28:55;;;;;;;;;;;14.50;66.20;;;;;;4198011;28;20143;-42
2021/01/18 00:31:16;;;;;;;0.45;0.45;;;14.50;66.20;;;;;;4197608;28;19928;-42
2021/01/18 00:33:38;;;;;;;;;;;14.50;66.30;;;;;;4196584;28;20128;-42
2021/01/18 00:35:59;;;;;;;0.10;0.10;;;14.40;66.40;;;;;;4197121;28;20378;-42
2021/01/18 00:38:20;;;;;;;;;;;14.40;66.50;;;;;;4197758;28;20056;-46
2021/01/18 00:40:41;;;;;;;0.00;0.00;;;14.40;66.70;;;;;;4197640;28;20666;-42
2021/01/18 00:43:02;;;;;;;0.85;0.85;;;14.40;66.60;;;;;;4197452;28;20052;-42
2021/01/18 00:45:24;;;;;;;0.28;0.28;;;14.40;66.70;;;;;;4197284;28;20625;-42
2021/01/18 00:47:46;;;;;;;3.53;1.20;;;14.50;66.50;;;;;;4180756;28;20049;-42
2021/01/18 00:50:10;;;;;;;0.10;0.10;;;14.70;66.20;;;;;;4193288;28;20048;-42
2021/01/18 00:52:31;;;;;;;0.00;0.00;;;14.80;65.70;;;;;;4196121;28;20053;-42
2021/01/18 00:54:52;;;;;;;0.10;0.10;;;14.80;65.50;;;;;;4197101;28;20049;-42
2021/01/18 00:57:32;;;;;;;0.22;0.22;;;14.80;65.40;;;;;;4193553;28;20123;-43
2021/01/18 00:59:54;;;;;;;0.20;0.20;;;14.80;65.20;;;;;;4193548;28;20056;-42
2021/01/18 01:02:15;;;;;;;;;;;14.80;65.10;;;;;;4188516;28;20506;-42
2021/01/18 01:04:39;;;;;;;0.00;0.00;;;14.80;65.10;;;;;;4195722;28;20508;-42
2021/01/18 01:07:01;;;;;;;0.00;0.00;;;14.80;65.20;;;;;;4197001;28;20414;-42
2021/01/18 01:09:22;;;;;;;0.00;0.00;;;14.80;65.20;;;;;;4197011;28;20145;-42
2021/01/18 01:11:43;;;;;;;0.00;0.00;;;14.80;65.30;;;;;;4197163;28;20102;-42
2021/01/18 01:14:04;;;;;;;1.60;1.50;;;14.90;65.10;;;;;;4196817;28;20052;-43
2021/01/18 01:16:25;;;;;;;0.00;0.00;;;14.90;64.90;;;;;;4196655;28;20072;-43
2021/01/18 01:18:46;;;;;;;0.03;0.03;;;14.90;64.70;;;;;;4196741;28;20048;-42
2021/01/18 01:21:08;;;;;;;0.17;0.17;;;14.90;64.60;;;;;;4196744;28;20052;-42
2021/01/18 01:23:29;;;;;;;0.08;0.08;;;14.90;64.60;;;;;;4196799;28;20048;-42
2021/01/18 01:25:50;;;;;;;0.00;0.00;;;14.90;64.60;;;;;;4195324;28;20124;-44
2021/01/18 01:28:11;;;;;;;0.00;0.00;;;14.90;64.70;;;;;;4196496;28;20078;-43
2021/01/18 01:30:33;;;;;;;0.00;0.00;;;14.90;64.80;;;;;;4196464;28;20044;-41
2021/01/18 01:32:55;;;;;;;0.10;0.10;;;14.90;64.90;;;;;;4196498;28;20061;-42
2021/01/18 01:35:17;;;;;;;0.00;0.00;;;15.10;64.40;;;;;;4196351;28;20061;-42
2021/01/18 01:37:39;;;;;;;0.70;0.70;;;15.20;63.90;;;;;;4196591;28;20053;-42
2021/01/18 01:40:00;;;;;;;;;;;15.20;63.50;;;;;;4196924;28;20052;-43
2021/01/18 01:42:22;;;;;;;0.10;0.10;;;15.40;63.20;;;;;;4196499;28;20385;-42
2021/01/18 01:44:43;;;;;;;1.17;1.17;;;15.40;62.70;;;;;;4196000;28;20056;-42
2021/01/18 01:47:04;;;;;;;0.00;0.00;;;15.50;62.50;;;;;;4196125;28;20055;-43
2021/01/18 01:49:25;;;;;;;0.00;0.00;;;15.50;62.40;;;;;;4196203;28;20076;-42
2021/01/18 01:51:48;;;;;;;0.55;0.55;;;15.50;62.40;;;;;;4196319;28;20064;-43
2021/01/18 01:54:09;;;;;;;0.00;0.00;;;15.50;62.40;;;;;;4196125;28;20416;-43
2021/01/18 01:56:32;;;;;;;0.10;0.10;;;15.40;62.50;;;;;;4196016;28;20174;-43
2021/01/18 01:58:54;;;;;;;0.00;0.00;;;15.50;62.60;;;;;;4195979;28;20158;-46
2021/01/18 02:01:14;;;;;;;1.95;1.80;;;15.40;62.60;;;;;;4196580;28;20134;-43
2021/01/18 02:03:39;;;;;;;;;;;15.40;62.60;;;;;;4196307;28;20474;-43
2021/01/18 02:06:00;;;;;;;0.00;0.00;;;15.40;62.70;;;;;;4196084;28;19924;-44
2021/01/18 02:08:21;;;;;;;1.35;0.90;;;15.40;62.80;;;;;;4195482;28;20504;-42
2021/01/18 02:10:42;;;;;;;0.00;0.00;;;15.30;63.00;;;;;;4195752;28;20497;-43
2021/01/18 02:13:25;;;;;;;0.00;0.00;;;15.40;62.80;;;;;;4195821;28;20052;-43
2021/01/18 02:15:55;;;;;;;0.00;0.00;;;15.50;62.30;;;;;;4195859;28;20074;-43
2021/01/18 02:18:25;;;;;;;0.30;0.30;;;15.60;61.90;;;;;;4195510;28;20056;-43
2021/01/18 02:21:16;;;;;;;0.00;0.00;;;15.70;61.70;;;;;;4195894;28;20044;-43
2021/01/18 02:24:10;;;;;;;33.33;4.97;;;15.70;61.60;;;;;;4195575;28;20057;-43
2021/01/18 02:26:50;;;;;;;0.00;0.00;;;15.70;61.60;;;;;;4195777;28;20132;-43
2021/01/18 02:29:22;;;;;;;0.75;0.75;;;15.70;61.70;;;;;;4195927;28;20098;-43
2021/01/18 02:31:50;;;;;;;;;;;15.60;61.80;;;;;;4196288;28;20056;-43
2021/01/18 02:34:48;;;;;;;0.30;0.30;;;15.60;61.80;;;;;;4195538;28;20378;-43
2021/01/18 02:37:50;;;;;;;0.00;0.00;;;15.60;61.80;;;;;;4195729;28;20048;-44
2021/01/18 02:40:19;;;;;;;0.00;0.00;;;15.70;61.80;;;;;;4195789;28;20056;-43
2021/01/18 02:42:46;;;;;;;0.10;0.10;;;15.60;61.90;;;;;;4195431;28;20048;-43
2021/01/18 02:45:10;;;;;;;0.00;0.00;;;15.60;62.00;;;;;;4195567;28;20052;-43
2021/01/18 02:47:35;;;;;;;0.00;0.00;;;15.60;62.10;;;;;;4195479;28;20131;-43
2021/01/18 02:49:59;;;;;;;0.08;0.08;;;15.60;62.00;;;;;;4195365;28;20517;-43
2021/01/18 02:52:20;;;;;;;0.00;0.00;;;15.60;61.90;;;;;;4195469;28;20510;-43
2021/01/18 02:54:42;;;;;;;0.00;0.00;;;15.60;62.00;;;;;;4195515;28;20074;-42
2021/01/18 02:57:05;;;;;;;0.00;0.00;;;15.60;62.00;;;;;;4195177;28;20664;-42
2021/01/18 02:59:26;;;;;;;0.00;0.00;;;15.50;62.10;;;;;;4195774;28;20059;-44
2021/01/18 03:02:12;;;;;;;0.17;0.17;;;15.50;62.20;;;;;;4195286;28;20502;-43
2021/01/18 03:04:43;;;;;;;0.00;0.00;;;15.60;61.90;;;;;;4192319;28;20483;-43
2021/01/18 03:07:11;;;;;;;0.60;0.60;;;15.70;61.80;;;;;;4183847;28;20044;-43
2021/01/18 03:09:40;;;;;;;50.85;1.33;;;15.60;61.60;;;;;;4195533;28;20053;-43
2021/01/18 03:12:06;;;;;;;0.20;0.20;;;15.60;61.80;;;;;;4195208;28;20052;-43
2021/01/18 03:14:29;;;;;;;0.00;0.00;;;15.60;61.70;;;;;;4195463;28;20530;-42
2021/01/18 03:16:55;;;;;;;0.00;0.00;;;15.60;61.80;;;;;;4195204;28;20414;-43
2021/01/18 03:19:19;;;;;;;0.00;0.00;;;15.60;61.80;;;;;;4195320;28;20086;-43
2021/01/18 03:21:45;;;;;;;0.00;0.00;;;15.60;61.90;;;;;;4198481;28;20078;-43
2021/01/18 03:24:07;;;;;;;0.10;0.10;;;15.60;61.90;;;;;;4198648;28;20132;-43
2021/01/18 03:26:28;;;;;;;0.82;0.80;;;15.60;61.80;;;;;;4198709;28;20045;-44
2021/01/18 03:28:49;;;;;;;0.00;0.00;;;15.60;61.90;;;;;;4198562;28;20053;-43
2021/01/18 03:31:13;;;;;;;0.00;0.00;;;15.50;61.80;;;;;;4198353;28;20072;-43
2021/01/18 03:33:34;;;;;;;0.00;0.00;;;15.50;62.00;;;;;;4197926;28;20392;-43
2021/01/18 03:35:55;;;;;;;0.00;0.00;;;15.50;62.00;;;;;;4181857;28;20091;-43
2021/01/18 03:38:16;;;;;;;;;;;15.60;62.70;;;;;;4182161;28;20507;-43
2021/01/18 03:40:38;;;;;;;0.00;0.00;;;15.70;61.40;;;;;;4181749;28;19924;-43
2021/01/18 03:43:00;;;;;;;0.00;0.00;;;15.80;61.00;;;;;;4196046;28;20106;-42
2021/01/18 03:45:22;;;;;;;0.00;0.00;;;15.80;60.90;;;;;;4198154;28;20064;-43
2021/01/18 03:47:44;;;;;;;0.00;0.00;;;15.80;60.80;;;;;;4198209;28;20127;-43
2021/01/18 03:50:06;;;;;;;0.00;0.00;;;15.90;60.60;;;;;;4181687;28;20417;-43
2021/01/18 03:52:27;;;;;;;0.00;0.00;;;16.00;60.20;;;;;;4181508;28;20414;-42
2021/01/18 03:54:48;;;;;;;0.00;0.00;;;16.10;59.90;;;;;;4188551;28;20045;-42
2021/01/18 03:57:10;;;;;;;0.00;0.00;;;16.10;59.90;;;;;;4197839;28;20048;-43
2021/01/18 03:59:30;;;;;;;0.00;0.00;;;16.10;59.90;;;;;;4197980;28;20135;-43
2021/01/18 04:01:54;;;;;;;7.70;1.90;;;16.10;59.90;;;;;;4197927;28;20402;-43
2021/01/18 04:04:15;;;;;;;0.00;0.00;;;16.20;59.60;;;;;;4197737;28;20444;-44
2021/01/18 04:06:39;;;;;;;0.47;0.47;;;16.30;59.30;;;;;;4198011;28;20494;-43
2021/01/18 04:09:00;;;;;;;0.10;0.10;;;16.40;59.00;;;;;;4197807;28;20045;-43
2021/01/18 04:11:20;;;;;;;0.65;0.65;;;16.40;59.70;;;;;;4197879;28;20052;-43
2021/01/18 04:13:41;;;;;;;0.00;0.00;;;16.40;59.10;;;;;;4197840;28;20053;-43
2021/01/18 04:16:02;;;;;;;0.00;0.00;;;16.30;59.20;;;;;;4197858;28;20052;-43
2021/01/18 04:18:24;;;;;;;;;;;16.30;59.30;;;;;;4197740;28;20430;-43
2021/01/18 04:20:45;;;;;;;0.00;0.00;;;16.20;59.40;;;;;;4197395;28;19931;-43
2021/01/18 04:23:06;;;;;;;0.00;0.00;;;16.10;59.60;;;;;;4197788;28;20048;-44
2021/01/18 04:25:28;;;;;;;0.22;0.22;;;16.10;59.90;;;;;;4197656;28;20059;-43
2021/01/18 04:27:51;;;;;;;0.00;0.00;;;16.10;59.80;;;;;;4197416;28;20123;-43
2021/01/18 04:30:14;;;;;;;0.20;0.20;;;16.10;59.80;;;;;;4197312;28;20497;-43
2021/01/18 04:32:35;;;;;;;0.00;0.00;;;16.10;59.90;;;;;;4196623;28;20052;-44
2021/01/18 04:34:57;;;;;;;0.08;0.08;;;16.00;60.00;;;;;;4197627;28;20044;-43
2021/01/18 04:37:18;;;;;;;0.00;0.00;;;15.90;60.30;;;;;;4197326;28;20522;-43
2021/01/18 04:39:39;;;;;;;;;;;16.00;60.20;;;;;;4197737;28;20044;-43
2021/01/18 04:42:00;;;;;;;0.00;0.00;;;16.20;59.70;;;;;;4197533;28;19932;-43
2021/01/18 04:44:23;;;;;;;0.00;0.00;;;16.40;59.20;;;;;;4197422;28;20422;-43
2021/01/18 04:46:45;;;;;;;0.00;0.00;;;16.50;59.00;;;;;;4197211;28;20056;-43
2021/01/18 04:49:06;;;;;;;0.00;0.00;;;16.40;58.90;;;;;;4196982;28;20048;-44
2021/01/18 04:51:32;;;;;;;;;;;16.30;59.00;;;;;;4197644;28;20131;-43
2021/01/18 04:53:56;;;;;;;0.00;0.00;;;16.30;59.10;;;;;;4196822;28;19920;-44
2021/01/18 04:56:41;;;;;;;0.00;0.00;;;16.30;59.20;;;;;;4196928;28;20589;-44
2021/01/18 04:59:03;;;;;;;0.00;0.00;;;16.30;59.30;;;;;;4197094;28;20458;-43
2021/01/18 05:01:29;;;;;;;0.00;0.00;;;16.20;59.40;;;;;;4196700;28;20148;-44
2021/01/18 05:04:03;;;;;;;0.00;0.00;;;16.30;59.50;;;;;;4193591;28;20052;-42
2021/01/18 05:06:46;;;;;;;0.10;0.10;;;16.30;59.40;;;;;;4196965;28;20053;-44
2021/01/18 05:09:30;;;;;;;0.00;0.00;;;16.30;59.30;;;;;;4196899;28;20532;-43
2021/01/18 05:11:51;;;;;;;0.00;0.00;;;16.30;59.40;;;;;;4196761;28;20052;-43
2021/01/18 05:14:14;;;;;;;0.00;0.00;;;16.20;59.50;;;;;;4196825;28;20060;-44
2021/01/18 05:16:37;;;;;;;0.00;0.00;;;16.10;59.60;;;;;;4196489;28;20090;-43
2021/01/18 05:19:05;;;;;;;0.00;0.00;;;16.00;59.80;;;;;;4196592;28;20049;-43
2021/01/18 05:21:25;;;;;;;0.00;0.00;;;15.90;60.20;;;;;;4196474;28;20110;-43
2021/01/18 05:23:47;;;;;;;0.00;0.00;;;15.90;60.50;;;;;;4196630;28;20067;-43
2021/01/18 05:26:18;;;;;;;0.00;0.00;;;15.90;60.40;;;;;;4196578;28;20079;-43
2021/01/18 05:28:43;;;;;;;0.00;0.00;;;16.00;60.20;;;;;;4196509;28;20064;-43
2021/01/18 05:31:04;;;;;;;0.00;0.00;;;16.20;59.60;;;;;;4196491;28;20530;-43
2021/01/18 05:33:26;;;;;;;0.10;0.10;;;16.30;59.30;;;;;;4196201;28;20110;-44
2021/01/18 05:35:49;;;;;;;0.00;0.00;;;16.40;59.20;;;;;;4196474;28;20083;-43
2021/01/18 05:38:11;;;;;;;0.00;0.00;;;16.40;59.10;;;;;;4196798;28;20518;-43
2021/01/18 05:40:36;;;;;;;0.60;0.35;;;16.50;59.00;;;;;;4196264;28;20079;-43
2021/01/18 05:43:01;;;;;;;0.00;0.00;;;16.50;58.70;;;;;;4195589;28;20125;-45
2021/01/18 05:45:30;;;;;;;0.10;0.10;;;16.60;58.50;;;;;;4196240;28;20051;-44
2021/01/18 05:47:52;;;;;;;0.00;0.00;;;16.60;58.40;;;;;;4196296;28;20045;-43
2021/01/18 05:50:14;;;;;;;0.00;0.00;;;16.60;58.40;;;;;;4196396;28;20427;-43
2021/01/18 05:52:36;;;;;;;0.00;0.00;;;16.60;58.40;;;;;;4195811;28;20436;-43
2021/01/18 05:55:16;;;;;;;0.00;0.00;;;16.70;58.40;;;;;;4196276;28;20048;-43
2021/01/18 05:57:38;;;;;;;0.00;0.00;;;16.60;58.40;;;;;;4195013;28;20052;-44
2021/01/18 06:00:00;;;;;;;0.00;0.00;;;16.50;58.60;;;;;;4195766;28;20045;-45
2021/01/18 06:02:28;;;;;;;0.00;0.00;;;16.40;58.80;;;;;;4196048;28;20056;-44
2021/01/18 06:04:49;;;;;;;0.00;0.00;;;16.50;58.80;;;;;;4196124;28;20056;-43
2021/01/18 06:07:10;;;;;;;0.00;0.00;;;16.50;59.40;;;;;;4196062;28;20135;-43
2021/01/18 06:09:44;;;;;;;0.35;0.35;;;16.50;58.80;;;;;;4195627;28;20052;-43
2021/01/18 06:12:19;;;;;;;0.00;0.00;;;16.50;58.90;;;;;;4195879;28;20053;-45
2021/01/18 06:14:41;;;;;;;0.22;0.22;;;16.50;58.90;;;;;;4195973;28;20052;-43
2021/01/18 06:17:03;;;;;;;0.52;0.52;;;16.50;58.90;;;;;;4195871;28;20056;-44
2021/01/18 06:19:25;;;;;;;0.00;0.00;;;16.60;58.70;;;;;;4179518;28;20053;-43
2021/01/18 06:21:47;;;;;;;0.00;0.00;;;16.80;58.20;;;;;;4179434;28;20045;-43
2021/01/18 06:24:25;;;;;;;0.00;0.00;;;16.90;57.80;;;;;;4192857;28;20060;-44
2021/01/18 06:26:47;;;;;;;0.57;0.57;;;17.10;57.40;;;;;;4195838;28;20056;-43
2021/01/18 06:29:08;;;;;;;0.00;0.00;;;17.20;57.10;;;;;;4195943;28;20506;-43
2021/01/18 06:31:44;;;;;;;0.00;0.00;;;17.10;57.10;;;;;;4195694;28;20170;-43
2021/01/18 06:34:06;;;;;;;0.00;0.00;;;17.10;57.30;;;;;;4179284;28;20060;-43
2021/01/18 06:36:27;;;;;;;0.00;0.00;;;16.90;57.50;;;;;;4179738;28;20493;-44
2021/01/18 06:38:52;;;;;;;0.00;0.00;;;16.80;57.90;;;;;;4195507;28;20155;-43
2021/01/18 06:41:14;;;;;;;0.00;0.00;;;16.80;58.00;;;;;;4195762;28;20055;-45
2021/01/18 06:43:35;;;;;;;0.22;0.22;;;16.80;58.00;;;;;;4195797;28;20052;-43
2021/01/18 06:45:56;;;;;;;0.00;0.00;;;16.80;58.10;;;;;;4195471;28;20055;-43
2021/01/18 06:48:20;;;;;;;0.00;0.00;;;16.70;58.30;;;;;;4195427;28;20058;-43
2021/01/18 06:50:41;;;;;;;1.27;1.17;;;16.60;58.50;;;;;;4195739;28;20052;-43
2021/01/18 06:53:23;;;;;;;0.00;0.00;;;16.50;58.80;;;;;;4195514;28;20507;-43
2021/01/18 06:56:28;;;;;;;1.10;1.00;;;16.40;59.10;;;;;;4201087;28;20049;-43
2021/01/18 06:58:56;;;;;;;1.00;0.90;;;16.20;59.50;;;;;;4200927;28;20814;-43
2021/01/18 07:01:29;;;;;;;0.00;0.00;;;16.20;59.90;;;;;;4200754;28;20060;-43
2021/01/18 07:03:58;;;;;;;0.03;0.03;;;16.30;59.80;;;;;;4184436;28;20063;-46
2021/01/18 07:06:30;;;;;;;0.00;0.00;;;16.40;59.50;;;;;;4184437;28;20062;-43
2021/01/18 07:08:52;;;;;;;0.00;0.00;;;16.60;59.10;;;;;;4183153;28;20581;-44
2021/01/18 07:11:18;;;;;;;0.00;0.00;;;16.70;58.70;;;;;;4184396;28;20063;-43
2021/01/18 07:13:45;;;;;;;0.00;0.00;;;16.80;58.50;;;;;;4184263;28;20060;-44
2021/01/18 07:16:11;;;;;;;0.40;0.40;;;17.00;58.80;;;;;;4200683;28;20049;-44
2021/01/18 07:18:37;;;;;;;0.00;0.00;;;17.20;58.40;;;;;;4200574;28;20664;-44
2021/01/18 07:21:03;;;;;;;0.35;0.35;;;17.20;58.00;;;;;;4200953;28;20048;-44
2021/01/18 07:23:30;;;;;;;0.00;0.00;;;17.20;57.80;;;;;;4200681;28;20086;-42
2021/01/18 07:26:14;;;;;;;1.42;1.05;;;17.30;57.60;;;;;;4200063;28;20125;-43
2021/01/18 07:28:36;;;;;;;0.00;0.00;;;17.50;57.00;;;;;;4190459;28;20136;-42
2021/01/18 07:30:57;;;;;;;0.00;0.00;;;17.60;56.50;;;;;;4201198;28;20062;-42
2021/01/18 07:33:19;;;;;;;0.47;0.47;;;17.70;56.30;;;;;;4200626;28;20052;-42
2021/01/18 07:35:41;;;;;;;0.03;0.03;;;17.70;56.30;;;;;;4201078;28;20083;-42
2021/01/18 07:38:12;;;;;;;0.05;0.05;;;17.60;56.60;;;;;;4200987;28;20055;-42
2021/01/18 07:40:32;;;;;;;0.10;0.10;;;17.40;56.90;;;;;;4184322;28;20072;-42
2021/01/18 07:42:53;;;;;;;0.10;0.10;;;17.30;58.00;;;;;;4184384;28;20469;-42
2021/01/18 07:45:16;;;;;;;0.00;0.00;;;17.10;57.70;;;;;;4191347;28;20063;-42
2021/01/18 07:48:05;;;;;;;1.42;1.33;;;16.90;58.10;;;;;;4192554;28;20057;-42
2021/01/18 07:50:27;;;;;;;0.00;0.00;;;16.70;58.60;;;;;;4200825;28;20049;-42
2021/01/18 07:52:48;;;;;;;0.55;0.55;;;16.60;58.90;;;;;;4200531;28;20121;-42
2021/01/18 07:55:22;;;;;;;0.43;0.43;;;16.70;59.00;;;;;;4200737;28;20048;-42
2021/01/18 07:57:45;;;;;;;0.00;0.00;;;16.80;58.70;;;;;;4200548;28;20052;-43
2021/01/18 08:00:33;;;;;;;0.15;0.15;;;16.80;58.40;;;;;;4198387;28;20052;-42
2021/01/18 08:02:56;;;;;;;3.10;0.90;;;16.80;58.50;;;;;;4171961;28;20044;-42
2021/01/18 08:05:21;;;;;;;0.10;0.10;;;16.80;58.60;;;;;;4200058;28;20052;-41
2021/01/18 08:08:01;;;;;;;9.85;2.30;;;16.70;58.80;;;;;;4197592;28;20052;-42
2021/01/18 08:10:24;;;;;;;0.00;0.00;;;16.70;59.00;;;;;;4197571;28;20456;-41
2021/01/18 08:12:45;;;;;;;0.00;0.00;;;16.90;58.60;;;;;;4197946;28;20048;-43
2021/01/18 08:15:06;;;;;;;;;;;17.10;58.10;;;;;;4198158;28;20060;-42
2021/01/18 08:17:27;;;;;;;0.00;0.00;;;17.10;57.90;;;;;;4197833;28;20010;-42
2021/01/18 08:20:07;;;;;;;;;;;17.10;57.90;;;;;;4198135;28;20064;-41
2021/01/18 08:22:29;;;;;;;0.00;0.00;;;17.00;58.10;;;;;;4197351;28;19924;-43
2021/01/18 08:24:54;;;;;;;0.98;0.30;;;16.90;58.40;;;;;;4181242;28;20052;-43
2021/01/18 08:27:16;;;;;;;0.00;0.00;;;16.80;58.80;;;;;;4181034;28;20143;-42
2021/01/18 08:29:39;;;;;;;0.13;0.13;;;16.60;59.10;;;;;;4181110;28;20060;-44
2021/01/18 08:32:38;;;;;;;0.08;0.08;;;16.50;59.40;;;;;;4191013;28;20537;-42
2021/01/18 08:35:01;;;;;;;0.00;0.00;;;16.50;59.70;;;;;;4182090;28;20055;-41
2021/01/18 08:37:23;;;;;;;0.05;0.05;;;16.60;59.40;;;;;;4197612;28;20499;-42
2021/01/18 08:39:51;;;;;;;0.43;0.43;;;16.70;59.20;;;;;;4197235;28;20056;-42
2021/01/18 08:42:25;;;;;;;0.00;0.00;;;16.70;59.10;;;;;;4197392;28;20454;-42
2021/01/18 08:44:46;;;;;;;0.00;0.00;;;16.70;59.20;;;;;;4197389;28;20056;-41
2021/01/18 08:47:38;;;;;;;0.00;0.00;;;16.60;59.30;;;;;;4197165;28;20540;-41
2021/01/18 08:50:18;;;;;;;0.00;0.00;;;16.50;59.40;;;;;;4197482;28;20068;-41
2021/01/18 08:52:39;;;;;;;0.10;0.10;;;16.40;59.60;;;;;;4197076;28;20682;-41
2021/01/18 08:55:00;;;;;;;1.23;1.13;;;16.40;59.70;;;;;;4196876;28;20053;-44
2021/01/18 08:57:25;;;;;;;0.00;0.00;;;16.40;59.70;;;;;;4197281;28;20086;-42
2021/01/18 08:59:46;;;;;;;0.00;0.00;;;16.40;59.80;;;;;;4197262;28;20591;-42
2021/01/18 09:02:07;;;;;;;0.00;0.00;;;16.50;59.60;;;;;;4197048;28;20063;-42
2021/01/18 09:04:29;;;;;;;13.38;0.80;;;16.70;59.20;;;;;;4196859;28;20056;-43
2021/01/18 09:06:50;;;;;;;0.00;0.00;;;16.80;58.70;;;;;;4196892;28;20048;-41
2021/01/18 09:09:11;;;;;;;0.00;0.00;;;16.90;58.60;;;;;;4180427;28;20053;-42
2021/01/18 09:11:33;;;;;;;0.10;0.10;;;16.80;58.50;;;;;;4193881;28;20135;-42
2021/01/18 09:13:55;;;;;;;0.20;0.20;;;16.80;58.70;;;;;;4196875;28;20567;-43
2021/01/18 09:16:18;;;;;;;0.10;0.10;;;16.70;59.00;;;;;;4196950;28;20127;-42
2021/01/18 09:18:40;;;;;;;0.00;0.00;;;16.60;60.00;;;;;;4195727;28;20052;-42
2021/01/18 09:21:02;;;;;;;0.00;0.00;;;16.50;59.50;;;;;;4196418;28;20067;-41
2021/01/18 09:23:25;;;;;;;0.00;0.00;;;16.40;59.90;;;;;;4180296;28;20114;-46
2021/01/18 09:25:59;;;;;;;0.47;0.47;;;16.20;60.20;;;;;;4182327;28;20056;-42
2021/01/18 09:28:20;;;;;;;0.00;0.00;;;16.10;60.70;;;;;;4196666;28;20059;-41
2021/01/18 09:30:43;;;;;;;1.35;1.25;;;16.10;60.90;;;;;;4196348;28;20048;-41
2021/01/18 09:33:06;;;;;;;0.00;0.00;;;16.20;60.90;;;;;;4188010;28;20099;-41
2021/01/18 09:35:28;;;;;;;4.88;0.57;;;16.20;60.90;;;;;;4194007;28;20048;-41
2021/01/18 09:37:50;;;;;;;0.00;0.00;;;16.20;61.00;;;;;;4196525;28;20456;-41
2021/01/18 09:40:28;;;;;;;7.82;0.95;;;16.20;61.10;;;;;;4180036;28;20151;-40
2021/01/18 09:42:53;;;;;;;0.90;0.90;;;16.10;61.10;;;;;;4179985;28;20060;-42
2021/01/18 09:45:15;;;;;;;0.05;0.05;;;16.10;61.20;;;;;;4182102;28;20055;-42
2021/01/18 09:47:37;;;;;;;0.10;0.10;;;16.10;61.30;;;;;;4196117;28;20056;-43
2021/01/18 09:50:09;;;;;;;0.00;0.00;;;16.00;61.70;;;;;;4196290;28;20109;-43
2021/01/18 09:52:31;;;;;;;0.95;0.95;;;16.00;61.70;;;;;;4196256;28;20557;-42
2021/01/18 09:54:52;;;;;;;;;;;16.10;61.60;;;;;;4180240;28;20080;-42
2021/01/18 09:57:18;;;;;;;0.00;0.00;;;16.30;61.30;;;;;;4179769;28;20065;-42
2021/01/18 09:59:41;;;;;;;0.10;0.10;;;16.50;61.30;;;;;;4179616;28;20065;-41
2021/01/18 10:02:02;;;;;;;0.28;0.28;;;16.60;60.10;;;;;;4179210;28;20076;-42
2021/01/18 10:04:27;;;;;;;0.00;0.00;;;16.60;60.00;;;;;;4179301;28;20056;-41
2021/01/18 10:06:50;;;;;;;0.30;0.30;;;16.50;59.90;;;;;;4164317;28;20057;-41
2021/01/18 10:09:15;;;;;;;0.70;0.70;;;16.50;60.10;;;;;;4179435;28;20048;-41
2021/01/18 10:11:42;;;;;;;0.00;0.00;;;16.60;60.10;;;;;;4179506;28;20080;-42
2021/01/18 10:14:04;;;;;;;0.20;0.20;;;16.50;60.20;;;;;;4179553;28;20056;-41
2021/01/18 10:16:25;;;;;;;0.10;0.10;;;16.40;60.40;;;;;;4178506;28;20049;-42
2021/01/18 10:18:48;;;;;;;0.10;0.10;;;16.40;60.60;;;;;;4179538;28;20049;-41
2021/01/18 10:21:12;;;;;;;0.10;0.10;;;16.40;60.90;;;;;;4178764;28;20072;-41
2021/01/18 10:23:35;;;;;;;2.25;1.45;;;16.40;60.60;;;;;;4179071;28;20053;-40
2021/01/18 10:25:55;;;;;;;0.75;0.75;;;16.50;60.30;;;;;;4179397;28;20761;-42
2021/01/18 10:28:18;;;;;;;0.00;0.00;;;16.50;60.20;;;;;;4179190;28;20136;-42
2021/01/18 10:30:39;;;;;;;0.15;0.15;;;16.50;60.20;;;;;;4178604;28;20053;-41
2021/01/18 10:33:01;;;;;;;0.00;0.00;;;16.50;60.40;;;;;;4178907;28;20558;-41
2021/01/18 10:35:29;;;;;;;0.10;0.10;;;16.50;60.60;;;;;;4177796;28;20874;-41
2021/01/18 10:37:51;;;;;;;0.08;0.08;;;16.50;60.50;;;;;;4179097;28;20134;-41
2021/01/18 10:40:13;;;;;;;0.00;0.00;;;16.60;60.50;;;;;;4178472;28;20415;-42
2021/01/18 10:42:47;;;;;;;0.17;0.17;;;16.60;60.40;;;;;;4178905;28;20426;-42
2021/01/18 10:45:15;;;;;;;1.20;1.20;;;16.60;60.20;;;;;;4178880;28;20049;-43
2021/01/18 10:47:36;;;;;;;0.20;0.20;;;16.70;60.10;;;;;;4178999;28;20547;-42
2021/01/18 10:49:59;;;;;;;2.08;0.45;;;16.90;59.50;;;;;;4179093;28;20056;-41
2021/01/18 10:52:30;;;;;;;0.57;0.57;;;17.10;59.20;;;;;;4178615;28;20049;-42
2021/01/18 10:55:00;;;;;;;0.45;0.45;;;17.10;59.00;;;;;;4179077;28;20057;-42
2021/01/18 10:57:39;;;;;;;0.10;0.10;;;17.00;59.20;;;;;;4194624;28;20057;-42
2021/01/18 11:00:08;;;;;;;0.10;0.10;;;16.90;59.50;;;;;;4195081;28;20131;-41
2021/01/18 11:02:30;;;;;;;0.63;0.63;;;16.70;59.70;;;;;;4195251;28;20516;-41
2021/01/18 11:04:52;;;;;;;0.20;0.20;;;16.70;60.20;;;;;;4194333;28;20108;-41
2021/01/18 11:07:14;;;;;;;0.10;0.10;;;16.50;60.60;;;;;;4195337;28;20515;-43
2021/01/18 11:09:35;;;;;;;1.23;1.23;;;16.40;61.00;;;;;;4195490;28;20102;-43
2021/01/18 11:11:59;;;;;;;0.57;0.57;;;16.30;62.50;;;;;;4195664;28;20048;-41
2021/01/18 11:14:20;;;;;;;0.10;0.10;;;16.20;62.10;;;;;;4195148;28;20059;-40
2021/01/18 11:16:41;;;;;;;0.17;0.17;;;16.20;62.20;;;;;;4188899;28;20056;-40
2021/01/18 11:19:04;;;;;;;1.13;1.13;;;16.20;62.10;;;;;;4195128;28;20067;-41
2021/01/18 11:21:26;;;;;;;0.88;0.65;;;16.30;62.10;;;;;;4178841;28;20056;-41
2021/01/18 11:23:47;;;;;;;0.22;0.22;;;16.20;62.00;;;;;;4189574;28;20056;-41
2021/01/18 11:26:09;;;;;;;0.20;0.20;;;16.20;62.10;;;;;;4195204;28;20061;-41
2021/01/18 11:28:31;;;;;;;13.05;0.65;;;16.10;62.40;;;;;;4195427;28;20059;-41
2021/01/18 11:30:53;;;;;;;0.52;0.52;;;16.20;62.50;;;;;;4195012;28;20477;-41
2021/01/18 11:33:14;;;;;;;4.10;1.75;;;16.30;62.00;;;;;;4195138;28;20080;-42
2021/01/18 11:35:36;;;;;;;0.00;0.00;;;16.40;61.50;;;;;;4195029;28;20556;-44
2021/01/18 11:37:56;;;;;;;0.75;0.75;;;16.50;61.40;;;;;;4195322;28;20499;-41
2021/01/18 11:40:17;;;;;;;0.95;0.95;;;16.40;61.40;;;;;;4195075;28;20052;-41
2021/01/18 11:42:39;;;;;;;0.00;0.00;;;16.40;61.60;;;;;;4197958;28;20129;-41
2021/01/18 11:45:01;;;;;;;1.55;1.52;;;16.30;61.80;;;;;;4198441;28;20399;-40
2021/01/18 11:47:23;;;;;;;2.05;1.95;;;16.30;62.00;;;;;;4197649;28;20048;-41
2021/01/18 11:49:44;;;;;;;0.30;0.30;;;16.20;62.30;;;;;;4186371;28;20537;-42
2021/01/18 11:52:04;;;;;;;0.20;0.20;;;16.10;62.70;;;;;;4197893;28;20048;-42
2021/01/18 11:54:25;;;;;;;0.00;0.00;;;16.00;62.90;;;;;;4197987;28;20064;-41
2021/01/18 11:56:47;;;;;;;0.28;0.28;;;15.90;63.00;;;;;;4196620;28;20052;-41
2021/01/18 11:59:07;;;;;;;1.58;1.48;;;15.90;63.20;;;;;;4198083;28;20049;-41
2021/01/18 12:01:30;;;;;;;;;;;15.80;63.40;;;;;;4198080;28;20495;-41
2021/01/18 12:03:51;;;;;;;1.05;0.90;;;15.80;63.60;;;;;;4198217;28;19932;-41
2021/01/18 12:06:12;;;;;;;0.70;0.70;;;15.70;63.80;;;;;;4197608;28;20083;-41
2021/01/18 12:08:33;;;;;;;0.32;0.32;;;15.80;63.90;;;;;;4198236;28;20052;-41
2021/01/18 12:10:54;;;;;;;1.75;1.65;;;15.90;63.60;;;;;;4197775;28;20442;-41
2021/01/18 12:13:15;;;;;;;0.00;0.00;;;16.00;63.10;;;;;;4197515;28;20055;-41
2021/01/18 12:15:37;;;;;;;0.00;0.00;;;16.10;62.90;;;;;;4197599;28;20053;-42
2021/01/18 12:17:59;;;;;;;0.47;0.47;;;16.10;62.70;;;;;;4197757;28;20080;-42
2021/01/18 12:20:21;;;;;;;0.20;0.20;;;16.20;62.60;;;;;;4197814;28;20092;-42
2021/01/18 12:22:42;;;;;;;0.00;0.00;;;16.20;62.50;;;;;;4198162;28;20076;-42
2021/01/18 12:25:04;;;;;;;0.00;0.00;;;16.30;62.60;;;;;;4197207;28;20422;-42
2021/01/18 12:27:25;;;;;;;0.93;0.93;;;16.40;62.60;;;;;;4197340;28;20061;-41
2021/01/18 12:29:46;;;;;;;0.40;0.40;;;16.60;62.10;;;;;;4197573;28;20131;-42
2021/01/18 12:32:08;;;;;;;0.38;0.38;;;16.70;61.50;;;;;;4194741;28;20049;-41
2021/01/18 12:34:30;;;;;;;0.20;0.20;;;16.80;61.40;;;;;;4197362;28;20061;-42
2021/01/18 12:36:55;;;;;;;0.30;0.30;;;16.80;61.30;;;;;;4197377;28;20048;-42